sensor_id;sensor_type;location;lat;lon;timestamp;pressure;altitude;pressure_sealevel;temperature;humidity
58955;BME280;45815;52.334;5.024;2024-03-23T00:53:59;101043.69;;;7.32;100.00
58955;BME280;45815;52.334;5.024;2024-03-23T00:56:24;101104.03;;;7.65;100.00
58955;BME280;45815;52.334;5.024;2024-03-23T00:58:50;101098.72;;;7.62;100.00
58955;BME280;45815;52.334;5.024;2024-03-23T01:01:15;101092.44;;;7.57;100.00
58955;BME280;45815;52.334;5.024;2024-03-23T01:03:41;101092.34;;;7.54;100.00
58955;BME280;45815;52.334;5.024;2024-03-23T01:06:06;101088.78;;;7.52;100.00
58955;BME280;45815;52.334;5.024;2024-03-23T01:08:32;101075.59;;;7.49;100.00
58955;BME280;45815;52.334;5.024;2024-03-23T01:11:01;101076.22;;;7.42;100.00
58955;BME280;45815;52.334;5.024;2024-03-23T01:13:28;101065.69;;;7.38;100.00
58955;BME280;45815;52.334;5.024;2024-03-23T01:15:55;101048.72;;;7.27;100.00
58955;BME280;45815;52.334;5.024;2024-03-23T01:18:21;101056.78;;;7.33;100.00
58955;BME280;45815;52.334;5.024;2024-03-23T01:20:47;101055.78;;;7.30;100.00
58955;BME280;45815;52.334;5.024;2024-03-23T01:23:13;101048.63;;;7.24;100.00
58955;BME280;45815;52.334;5.024;2024-03-23T01:25:39;101054.56;;;7.20;100.00
58955;BME280;45815;52.334;5.024;2024-03-23T01:28:05;101051.78;;;7.15;100.00
58955;BME280;45815;52.334;5.024;2024-03-23T01:30:34;101049.97;;;7.13;100.00
58955;BME280;45815;52.334;5.024;2024-03-23T01:33:01;101040.19;;;7.07;100.00
58955;BME280;45815;52.334;5.024;2024-03-23T01:35:28;101049.69;;;7.05;100.00
58955;BME280;45815;52.334;5.024;2024-03-23T01:37:53;101031.03;;;6.94;100.00
58955;BME280;45815;52.334;5.024;2024-03-23T01:40:19;101020.38;;;6.88;100.00
58955;BME280;45815;52.334;5.024;2024-03-23T01:45:22;101019.25;;;6.82;100.00
58955;BME280;45815;52.334;5.024;2024-03-23T01:47:52;101041.13;;;6.85;100.00
58955;BME280;45815;52.334;5.024;2024-03-23T01:50:18;101030.56;;;6.82;100.00
58955;BME280;45815;52.334;5.024;2024-03-23T01:52:44;101031.22;;;6.76;100.00
58955;BME280;45815;52.334;5.024;2024-03-23T01:55:10;101045.03;;;6.74;100.00
58955;BME280;45815;52.334;5.024;2024-03-23T01:57:35;101035.34;;;6.70;100.00
58955;BME280;45815;52.334;5.024;2024-03-23T02:00:00;101041.44;;;6.70;100.00
58955;BME280;45815;52.334;5.024;2024-03-23T02:02:26;101021.97;;;6.62;100.00
58955;BME280;45815;52.334;5.024;2024-03-23T02:04:52;101030.00;;;6.67;100.00
58955;BME280;45815;52.334;5.024;2024-03-23T02:07:17;101029.94;;;6.65;100.00
58955;BME280;45815;52.334;5.024;2024-03-23T02:09:43;101029.00;;;6.63;100.00
58955;BME280;45815;52.334;5.024;2024-03-23T02:12:09;101027.19;;;6.62;100.00
58955;BME280;45815;52.334;5.024;2024-03-23T02:14:35;101021.88;;;6.59;100.00
58955;BME280;45815;52.334;5.024;2024-03-23T02:17:00;101022.75;;;6.60;100.00
58955;BME280;45815;52.334;5.024;2024-03-23T02:19:25;101019.94;;;6.53;100.00
58955;BME280;45815;52.334;5.024;2024-03-23T02:21:51;101019.81;;;6.50;100.00
58955;BME280;45815;52.334;5.024;2024-03-23T02:24:16;101015.44;;;6.49;100.00
58955;BME280;45815;52.334;5.024;2024-03-23T02:26:41;101016.25;;;6.48;100.00
58955;BME280;45815;52.334;5.024;2024-03-23T02:29:07;101010.09;;;6.46;100.00
58955;BME280;45815;52.334;5.024;2024-03-23T02:31:33;101014.47;;;6.47;100.00
58955;BME280;45815;52.334;5.024;2024-03-23T02:33:59;101010.09;;;6.46;100.00
58955;BME280;45815;52.334;5.024;2024-03-23T02:36:24;101006.41;;;6.41;100.00
58955;BME280;45815;52.334;5.024;2024-03-23T02:38:49;101000.38;;;6.42;100.00
58955;BME280;45815;52.334;5.024;2024-03-23T02:41:15;100992.50;;;6.41;100.00
58955;BME280;45815;52.334;5.024;2024-03-23T02:43:40;100989.00;;;6.40;100.00
58955;BME280;45815;52.334;5.024;2024-03-23T02:46:06;100984.56;;;6.38;100.00
58955;BME280;45815;52.334;5.024;2024-03-23T02:48:31;100987.09;;;6.36;100.00
58955;BME280;45815;52.334;5.024;2024-03-23T02:50:57;100977.44;;;6.33;100.00
58955;BME280;45815;52.334;5.024;2024-03-23T02:53:22;100987.00;;;6.33;100.00
58955;BME280;45815;52.334;5.024;2024-03-23T02:55:47;100990.41;;;6.32;100.00
58955;BME280;45815;52.334;5.024;2024-03-23T02:58:13;100984.28;;;6.30;100.00
58955;BME280;45815;52.334;5.024;2024-03-23T03:00:38;100982.47;;;6.29;100.00
58955;BME280;45815;52.334;5.024;2024-03-23T03:03:04;100977.19;;;6.27;100.00
58955;BME280;45815;52.334;5.024;2024-03-23T03:05:29;100973.69;;;6.25;100.00
58955;BME280;45815;52.334;5.024;2024-03-23T03:07:55;100973.59;;;6.24;100.00
58955;BME280;45815;52.334;5.024;2024-03-23T03:10:20;100973.50;;;6.21;100.00
58955;BME280;45815;52.334;5.024;2024-03-23T03:12:45;100971.66;;;6.18;100.00
58955;BME280;45815;52.334;5.024;2024-03-23T03:15:11;100976.88;;;6.18;100.00
58955;BME280;45815;52.334;5.024;2024-03-23T03:17:36;100973.31;;;6.16;100.00
58955;BME280;45815;52.334;5.024;2024-03-23T03:20:02;100976.72;;;6.15;100.00
58955;BME280;45815;52.334;5.024;2024-03-23T03:22:27;100974.81;;;6.11;100.00
58955;BME280;45815;52.334;5.024;2024-03-23T03:24:53;100976.63;;;6.12;100.00
58955;BME280;45815;52.334;5.024;2024-03-23T03:27:18;100972.19;;;6.09;100.00
58955;BME280;45815;52.334;5.024;2024-03-23T03:29:44;100963.53;;;6.10;100.00
58955;BME280;45815;52.334;5.024;2024-03-23T03:32:09;100949.44;;;6.05;100.00
58955;BME280;45815;52.334;5.024;2024-03-23T03:34:35;100956.56;;;6.09;100.00
58955;BME280;45815;52.334;5.024;2024-03-23T03:37:00;100958.13;;;6.06;100.00
58955;BME280;45815;52.334;5.024;2024-03-23T03:39:25;100958.13;;;6.06;100.00
58955;BME280;45815;52.334;5.024;2024-03-23T03:41:51;100961.69;;;6.08;100.00
58955;BME280;45815;52.334;5.024;2024-03-23T03:44:17;100953.84;;;6.06;100.00
58955;BME280;45815;52.334;5.024;2024-03-23T03:46:43;100951.44;;;6.12;100.00
58955;BME280;45815;52.334;5.024;2024-03-23T03:49:08;100942.03;;;6.16;100.00
58955;BME280;45815;52.334;5.024;2024-03-23T03:51:34;100932.22;;;6.09;100.00
58955;BME280;45815;52.334;5.024;2024-03-23T03:53:59;100935.91;;;6.16;100.00
58955;BME280;45815;52.334;5.024;2024-03-23T03:56:24;100935.28;;;6.21;100.00
58955;BME280;45815;52.334;5.024;2024-03-23T03:58:50;100939.81;;;6.27;100.00
58955;BME280;45815;52.334;5.024;2024-03-23T04:01:15;100933.72;;;6.26;100.00
58955;BME280;45815;52.334;5.024;2024-03-23T04:03:43;100932.84;;;6.26;100.00
58955;BME280;45815;52.334;5.024;2024-03-23T04:06:09;100932.00;;;6.27;100.00
58955;BME280;45815;52.334;5.024;2024-03-23T04:08:35;100921.41;;;6.22;100.00
58955;BME280;45815;52.334;5.024;2024-03-23T04:11:00;100933.44;;;6.19;100.00
58955;BME280;45815;52.334;5.024;2024-03-23T04:13:26;100927.19;;;6.13;100.00
58955;BME280;45815;52.334;5.024;2024-03-23T04:15:55;100928.06;;;6.14;100.00
58955;BME280;45815;52.334;5.024;2024-03-23T04:18:20;100934.22;;;6.16;100.00
58955;BME280;45815;52.334;5.024;2024-03-23T04:20:47;100921.97;;;6.13;100.00
58955;BME280;45815;52.334;5.024;2024-03-23T04:23:12;100929.66;;;6.10;100.00
58955;BME280;45815;52.334;5.024;2024-03-23T04:25:37;100927.03;;;6.10;100.00
58955;BME280;45815;52.334;5.024;2024-03-23T04:28:03;100934.94;;;6.12;100.00
58955;BME280;45815;52.334;5.024;2024-03-23T04:30:29;100937.47;;;6.10;100.00
58955;BME280;45815;52.334;5.024;2024-03-23T04:32:55;100930.38;;;6.06;100.00
58955;BME280;45815;52.334;5.024;2024-03-23T04:35:22;100925.91;;;6.04;100.00
58955;BME280;45815;52.334;5.024;2024-03-23T04:37:50;100925.03;;;6.03;100.00
58955;BME280;45815;52.334;5.024;2024-03-23T04:40:17;100923.28;;;6.02;100.00
58955;BME280;45815;52.334;5.024;2024-03-23T04:42:43;100925.91;;;6.04;100.00
58955;BME280;45815;52.334;5.024;2024-03-23T04:45:09;100908.50;;;6.03;100.00
58955;BME280;45815;52.334;5.024;2024-03-23T04:47:36;100909.38;;;6.02;100.00
58955;BME280;45815;52.334;5.024;2024-03-23T04:50:03;100914.84;;;6.09;100.00
58955;BME280;45815;52.334;5.024;2024-03-23T04:52:29;100914.75;;;6.06;100.00
58955;BME280;45815;52.334;5.024;2024-03-23T04:54:54;100914.75;;;6.06;100.00
58955;BME280;45815;52.334;5.024;2024-03-23T04:57:20;100911.22;;;6.06;100.00
58955;BME280;45815;52.334;5.024;2024-03-23T04:59:48;100912.16;;;6.06;100.00
58955;BME280;45815;52.334;5.024;2024-03-23T05:02:14;100914.75;;;6.06;100.00
58955;BME280;45815;52.334;5.024;2024-03-23T05:04:40;100918.06;;;6.02;100.00
58955;BME280;45815;52.334;5.024;2024-03-23T05:07:06;100911.19;;;6.04;100.00
58955;BME280;45815;52.334;5.024;2024-03-23T05:09:32;100910.28;;;6.04;100.00
58955;BME280;45815;52.334;5.024;2024-03-23T05:11:58;100894.28;;;5.95;100.00
58955;BME280;45815;52.334;5.024;2024-03-23T05:14:25;100904.16;;;6.02;100.00
58955;BME280;45815;52.334;5.024;2024-03-23T05:16:51;100908.63;;;6.06;100.00
58955;BME280;45815;52.334;5.024;2024-03-23T05:19:16;100911.22;;;6.06;100.00
58955;BME280;45815;52.334;5.024;2024-03-23T05:21:42;100919.81;;;6.03;100.00
58955;BME280;45815;52.334;5.024;2024-03-23T05:24:07;100917.28;;;6.05;100.00
58955;BME280;45815;52.334;5.024;2024-03-23T05:26:33;100918.06;;;6.02;100.00
58955;BME280;45815;52.334;5.024;2024-03-23T05:28:59;100920.06;;;6.09;100.00
58955;BME280;45815;52.334;5.024;2024-03-23T05:31:26;100930.50;;;6.09;100.00
58955;BME280;45815;52.334;5.024;2024-03-23T05:33:51;100917.50;;;6.11;100.00
58955;BME280;45815;52.334;5.024;2024-03-23T05:36:17;100903.72;;;6.13;100.00
58955;BME280;45815;52.334;5.024;2024-03-23T05:38:43;100916.69;;;6.12;100.00
58955;BME280;45815;52.334;5.024;2024-03-23T05:41:08;100906.34;;;6.13;100.00
58955;BME280;45815;52.334;5.024;2024-03-23T05:43:33;100909.75;;;6.12;100.00
58955;BME280;45815;52.334;5.024;2024-03-23T05:46:00;100893.66;;;6.00;100.00
58955;BME280;45815;52.334;5.024;2024-03-23T05:48:27;100909.53;;;6.06;100.00
58955;BME280;45815;52.334;5.024;2024-03-23T05:50:53;100914.97;;;6.12;100.00
58955;BME280;45815;52.334;5.024;2024-03-23T05:53:19;100910.44;;;6.08;100.00
58955;BME280;45815;52.334;5.024;2024-03-23T05:55:48;100903.59;;;6.10;100.00
58955;BME280;45815;52.334;5.024;2024-03-23T05:58:15;100907.22;;;6.14;100.00
58955;BME280;45815;52.334;5.024;2024-03-23T06:00:42;100898.38;;;6.10;100.00
58955;BME280;45815;52.334;5.024;2024-03-23T06:03:10;100911.41;;;6.10;100.00
58955;BME280;45815;52.334;5.024;2024-03-23T06:05:36;100907.38;;;6.19;100.00
58955;BME280;45815;52.334;5.024;2024-03-23T06:08:02;100910.00;;;6.19;100.00
58955;BME280;45815;52.334;5.024;2024-03-23T06:10:28;100870.22;;;6.00;100.00
58955;BME280;45815;52.334;5.024;2024-03-23T06:12:53;100902.47;;;6.26;100.00
58955;BME280;45815;52.334;5.024;2024-03-23T06:15:19;100905.00;;;6.25;100.00
58955;BME280;45815;52.334;5.024;2024-03-23T06:17:44;100905.16;;;6.29;100.00
58955;BME280;45815;52.334;5.024;2024-03-23T06:20:10;100898.00;;;6.24;100.00
58955;BME280;45815;52.334;5.024;2024-03-23T06:22:36;100903.34;;;6.27;100.00
58955;BME280;45815;52.334;5.024;2024-03-23T06:25:02;100880.47;;;6.20;100.00
58955;BME280;45815;52.334;5.024;2024-03-23T06:27:27;100900.03;;;6.31;100.00
58955;BME280;45815;52.334;5.024;2024-03-23T06:29:53;100898.38;;;6.33;100.00
58955;BME280;45815;52.334;5.024;2024-03-23T06:32:18;100900.91;;;6.31;100.00
58955;BME280;45815;52.334;5.024;2024-03-23T06:34:44;100893.16;;;6.33;100.00
58955;BME280;45815;52.334;5.024;2024-03-23T06:37:10;100899.59;;;6.43;100.00
58955;BME280;45815;52.334;5.024;2024-03-23T06:39:36;100903.69;;;6.36;100.00
58955;BME280;45815;52.334;5.024;2024-03-23T06:42:02;100903.13;;;6.45;100.00
58955;BME280;45815;52.334;5.024;2024-03-23T06:44:27;100906.97;;;6.54;100.00
58955;BME280;45815;52.334;5.024;2024-03-23T06:46:53;100901.03;;;6.59;100.00
58955;BME280;45815;52.334;5.024;2024-03-23T06:49:18;100892.69;;;6.69;100.00
58955;BME280;45815;52.334;5.024;2024-03-23T06:51:45;100875.38;;;6.71;100.00
58955;BME280;45815;52.334;5.024;2024-03-23T06:54:10;100898.56;;;6.87;100.00
58955;BME280;45815;52.334;5.024;2024-03-23T06:56:35;100895.34;;;6.94;100.00
58955;BME280;45815;52.334;5.024;2024-03-23T06:59:01;100897.13;;;6.95;100.00
58955;BME280;45815;52.334;5.024;2024-03-23T07:01:26;100900.88;;;7.04;100.00
58955;BME280;45815;52.334;5.024;2024-03-23T07:03:53;100901.72;;;7.03;100.00
58955;BME280;45815;52.334;5.024;2024-03-23T07:06:19;100900.88;;;7.04;100.00
58955;BME280;45815;52.334;5.024;2024-03-23T07:08:44;100899.44;;;7.13;100.00
58955;BME280;45815;52.334;5.024;2024-03-23T07:11:09;100903.25;;;7.23;100.00
58955;BME280;45815;52.334;5.024;2024-03-23T07:13:35;100903.84;;;7.14;100.00
58955;BME280;45815;52.334;5.024;2024-03-23T07:16:00;100908.31;;;7.18;100.00
58955;BME280;45815;52.334;5.024;2024-03-23T07:18:26;100909.25;;;7.21;100.00
58955;BME280;45815;52.334;5.024;2024-03-23T07:20:53;100899.81;;;7.24;100.00
58955;BME280;45815;52.334;5.024;2024-03-23T07:23:18;100901.59;;;7.25;100.00
58955;BME280;45815;52.334;5.024;2024-03-23T07:25:44;100908.59;;;7.26;100.00
58955;BME280;45815;52.334;5.024;2024-03-23T07:28:09;100907.41;;;7.16;100.00
58955;BME280;45815;52.334;5.024;2024-03-23T07:30:35;100910.28;;;7.24;100.00
58955;BME280;45815;52.334;5.024;2024-03-23T07:33:00;100899.72;;;7.21;100.00
58955;BME280;45815;52.334;5.024;2024-03-23T07:35:26;100907.66;;;7.24;100.00
58955;BME280;45815;52.334;5.024;2024-03-23T07:37:51;100897.81;;;7.43;100.00
58955;BME280;45815;52.334;5.024;2024-03-23T07:40:17;100900.63;;;7.49;100.00
58955;BME280;45815;52.334;5.024;2024-03-23T07:42:42;100898.38;;;7.59;100.00
58955;BME280;45815;52.334;5.024;2024-03-23T07:45:07;100881.84;;;7.60;100.00
58955;BME280;45815;52.334;5.024;2024-03-23T07:47:34;100885.31;;;7.59;100.00
58955;BME280;45815;52.334;5.024;2024-03-23T07:50:00;100884.44;;;7.60;100.00
58955;BME280;45815;52.334;5.024;2024-03-23T07:52:28;100874.31;;;7.43;100.00
58955;BME280;45815;52.334;5.024;2024-03-23T07:54:54;100892.34;;;7.62;100.00
58955;BME280;45815;52.334;5.024;2024-03-23T07:57:20;100895.31;;;7.73;100.00
58955;BME280;45815;52.334;5.024;2024-03-23T07:59:45;100896.28;;;7.76;100.00
58955;BME280;45815;52.334;5.024;2024-03-23T08:02:11;100888.66;;;7.84;100.00
58955;BME280;45815;52.334;5.024;2024-03-23T08:04:36;100886.31;;;7.92;100.00
58955;BME280;45815;52.334;5.024;2024-03-23T08:07:02;100886.59;;;8.01;100.00
58955;BME280;45815;52.334;5.024;2024-03-23T08:09:27;100887.47;;;8.01;100.00
58955;BME280;45815;52.334;5.024;2024-03-23T08:11:52;100875.09;;;7.96;100.00
58955;BME280;45815;52.334;5.024;2024-03-23T08:14:18;100878.25;;;8.14;100.00
58955;BME280;45815;52.334;5.024;2024-03-23T08:16:43;100889.16;;;8.30;100.00
58955;BME280;45815;52.334;5.024;2024-03-23T08:19:14;100885.94;;;8.10;100.00
58955;BME280;45815;52.334;5.024;2024-03-23T08:21:39;100881.16;;;7.95;100.00
58955;BME280;45815;52.334;5.024;2024-03-23T08:24:05;100890.59;;;7.90;100.00
58955;BME280;45815;52.334;5.024;2024-03-23T08:26:30;100898.88;;;8.03;100.00
58955;BME280;45815;52.334;5.024;2024-03-23T08:28:56;100887.22;;;8.22;100.00
58955;BME280;45815;52.334;5.024;2024-03-23T08:31:22;100884.75;;;8.29;100.00
58955;BME280;45815;52.334;5.024;2024-03-23T08:33:47;100879.66;;;8.33;100.00
58955;BME280;45815;52.334;5.024;2024-03-23T08:36:13;100876.91;;;8.29;100.00
58955;BME280;45815;52.334;5.024;2024-03-23T08:38:39;100879.53;;;8.29;100.00
58955;BME280;45815;52.334;5.024;2024-03-23T08:41:07;100875.34;;;8.34;100.00
58955;BME280;45815;52.334;5.024;2024-03-23T08:43:35;100887.50;;;8.33;100.00
58955;BME280;45815;52.334;5.024;2024-03-23T08:48:41;100890.44;;;8.42;100.00
58955;BME280;45815;52.334;5.024;2024-03-23T08:51:10;100878.09;;;8.38;100.00
58955;BME280;45815;52.334;5.024;2024-03-23T08:53:36;100880.66;;;8.67;100.00
58955;BME280;45815;52.334;5.024;2024-03-23T08:56:02;100880.28;;;8.85;100.00
58955;BME280;45815;52.334;5.024;2024-03-23T08:58:28;100879.00;;;8.71;100.00
58955;BME280;45815;52.334;5.024;2024-03-23T09:00:55;100879.34;;;8.51;100.00
58955;BME280;45815;52.334;5.024;2024-03-23T09:03:24;100881.38;;;8.31;100.00
58955;BME280;45815;52.334;5.024;2024-03-23T09:05:51;100890.50;;;8.15;100.00
58955;BME280;45815;52.334;5.024;2024-03-23T09:08:16;100884.25;;;8.10;100.00
58955;BME280;45815;52.334;5.024;2024-03-23T09:10:42;100881.13;;;8.22;100.00
58955;BME280;45815;52.334;5.024;2024-03-23T09:13:08;100885.22;;;8.14;100.00
58955;BME280;45815;52.334;5.024;2024-03-23T09:15:35;100874.88;;;8.18;100.00
58955;BME280;45815;52.334;5.024;2024-03-23T09:18:01;100868.25;;;8.30;100.00
58955;BME280;45815;52.334;5.024;2024-03-23T09:20:26;100882.25;;;8.32;100.00
58955;BME280;45815;52.334;5.024;2024-03-23T09:22:52;100885.63;;;8.28;100.00
58955;BME280;45815;52.334;5.024;2024-03-23T09:25:17;100878.47;;;8.51;100.00
58955;BME280;45815;52.334;5.024;2024-03-23T09:27:43;100879.34;;;8.51;100.00
58955;BME280;45815;52.334;5.024;2024-03-23T09:30:10;100883.44;;;8.41;100.00
58955;BME280;45815;52.334;5.024;2024-03-23T09:32:36;100880.59;;;8.34;100.00
58955;BME280;45815;52.334;5.024;2024-03-23T09:35:01;100874.34;;;8.30;100.00
58955;BME280;45815;52.334;5.024;2024-03-23T09:37:26;100879.78;;;8.36;100.00
58955;BME280;45815;52.334;5.024;2024-03-23T09:39:52;100875.03;;;8.23;100.00
58955;BME280;45815;52.334;5.024;2024-03-23T09:42:17;100875.06;;;8.85;100.00
58955;BME280;45815;52.334;5.024;2024-03-23T09:44:43;100871.88;;;8.98;100.00
58955;BME280;45815;52.334;5.024;2024-03-23T09:47:09;100867.06;;;9.14;100.00
58955;BME280;45815;52.334;5.024;2024-03-23T09:49:35;100871.47;;;9.16;100.00
58955;BME280;45815;52.334;5.024;2024-03-23T09:52:02;100867.41;;;8.94;100.00
58955;BME280;45815;52.334;5.024;2024-03-23T09:54:28;100867.72;;;8.72;100.00
58955;BME280;45815;52.334;5.024;2024-03-23T09:56:53;100871.31;;;8.77;100.00
58955;BME280;45815;52.334;5.024;2024-03-23T09:59:18;100877.81;;;8.91;100.00
58955;BME280;45815;52.334;5.024;2024-03-23T10:01:44;100871.06;;;8.99;100.00
58955;BME280;45815;52.334;5.024;2024-03-23T10:04:09;100870.03;;;8.94;100.00
58955;BME280;45815;52.334;5.024;2024-03-23T10:06:35;100873.94;;;8.77;100.00
58955;BME280;45815;52.334;5.024;2024-03-23T10:09:01;100871.25;;;8.74;100.00
58955;BME280;45815;52.334;5.024;2024-03-23T10:11:27;100868.44;;;8.99;100.00
58955;BME280;45815;52.334;5.024;2024-03-23T10:13:54;100863.91;;;9.28;100.00
58955;BME280;45815;52.334;5.024;2024-03-23T10:16:22;100860.50;;;9.31;100.00
58955;BME280;45815;52.334;5.024;2024-03-23T10:18:48;100861.34;;;8.95;100.00
58955;BME280;45815;52.334;5.024;2024-03-23T10:21:15;100865.59;;;9.25;100.00
58955;BME280;45815;52.334;5.024;2024-03-23T10:23:42;100855.31;;;9.70;100.00
58955;BME280;45815;52.334;5.024;2024-03-23T10:26:18;100868.94;;;9.93;100.00
58955;BME280;45815;52.334;5.024;2024-03-23T10:29:01;100862.25;;;9.68;100.00
58955;BME280;45815;52.334;5.024;2024-03-23T10:31:28;100855.75;;;9.52;100.00
58955;BME280;45815;52.334;5.024;2024-03-23T10:33:53;100857.50;;;9.16;100.00
58955;BME280;45815;52.334;5.024;2024-03-23T10:36:21;100858.03;;;9.39;100.00
58955;BME280;45815;52.334;5.024;2024-03-23T10:38:47;100866.81;;;9.41;100.00
58955;BME280;45815;52.334;5.024;2024-03-23T10:41:14;100842.81;;;9.22;100.00
58955;BME280;45815;52.334;5.024;2024-03-23T10:43:40;100864.91;;;9.32;100.00
58955;BME280;45815;52.334;5.024;2024-03-23T10:46:05;100858.97;;;9.39;100.00
58955;BME280;45815;52.334;5.024;2024-03-23T10:48:32;100858.41;;;9.54;100.00
58955;BME280;45815;52.334;5.024;2024-03-23T10:50:58;100853.91;;;9.86;100.00
58955;BME280;45815;52.334;5.024;2024-03-23T10:53:27;100848.53;;;10.21;100.00
58955;BME280;45815;52.334;5.024;2024-03-23T10:55:54;100842.63;;;10.30;100.00
58955;BME280;45815;52.334;5.024;2024-03-23T10:58:26;100853.38;;;10.44;100.00
58955;BME280;45815;52.334;5.024;2024-03-23T11:00:53;100855.03;;;10.39;100.00
58955;BME280;45815;52.334;5.024;2024-03-23T11:03:38;100847.91;;;9.90;100.00
58955;BME280;45815;52.334;5.024;2024-03-23T11:06:05;100854.94;;;10.34;100.00
58955;BME280;45815;52.334;5.024;2024-03-23T11:08:40;100841.81;;;10.32;100.00
58955;BME280;45815;52.334;5.024;2024-03-23T11:11:22;100845.94;;;10.21;100.00
58955;BME280;45815;52.334;5.024;2024-03-23T11:13:53;100862.81;;;9.94;100.00
58955;BME280;45815;52.334;5.024;2024-03-23T11:16:24;100853.72;;;10.18;100.00
58955;BME280;45815;52.334;5.024;2024-03-23T11:18:51;100854.47;;;10.55;100.00
58955;BME280;45815;52.334;5.024;2024-03-23T11:21:51;100860.78;;;10.22;100.00
58955;BME280;45815;52.334;5.024;2024-03-23T11:24:16;100847.28;;;10.02;100.00
58955;BME280;45815;52.334;5.024;2024-03-23T11:26:42;100842.91;;;10.04;100.00
58955;BME280;45815;52.334;5.024;2024-03-23T11:29:11;100840.78;;;10.71;100.00
58955;BME280;45815;52.334;5.024;2024-03-23T11:31:50;100844.56;;;10.86;100.00
58955;BME280;45815;52.334;5.024;2024-03-23T11:34:16;100851.50;;;10.84;100.00
58955;BME280;45815;52.334;5.024;2024-03-23T11:36:42;100849.41;;;10.64;100.00
58955;BME280;45815;52.334;5.024;2024-03-23T11:41:48;100838.44;;;11.40;100.00
58955;BME280;45815;52.334;5.024;2024-03-23T11:44:26;100828.13;;;11.52;100.00
58955;BME280;45815;52.334;5.024;2024-03-23T11:46:52;100824.75;;;11.59;100.00
58955;BME280;45815;52.334;5.024;2024-03-23T11:49:25;100825.19;;;11.32;100.00
58955;BME280;45815;52.334;5.024;2024-03-23T11:51:52;100840.53;;;11.62;100.00
58955;BME280;45815;52.334;5.024;2024-03-23T11:54:23;100834.25;;;10.96;100.00
58955;BME280;45815;52.334;5.024;2024-03-23T11:56:59;100849.88;;;10.43;100.00
58955;BME280;45815;52.334;5.024;2024-03-23T11:59:39;100840.72;;;10.24;100.00
58955;BME280;45815;52.334;5.024;2024-03-23T12:02:09;100830.13;;;10.20;100.00
58955;BME280;45815;52.334;5.024;2024-03-23T12:04:36;100837.59;;;10.88;100.00
58955;BME280;45815;52.334;5.024;2024-03-23T12:07:16;100829.59;;;11.35;100.00
58955;BME280;45815;52.334;5.024;2024-03-23T12:09:43;100833.63;;;11.11;100.00
58955;BME280;45815;52.334;5.024;2024-03-23T12:12:14;100835.28;;;11.06;100.00
58955;BME280;45815;52.334;5.024;2024-03-23T12:14:44;100829.94;;;10.53;100.00
58955;BME280;45815;52.334;5.024;2024-03-23T12:17:14;100860.16;;;9.91;100.00
58955;BME280;45815;52.334;5.024;2024-03-23T12:19:41;100846.56;;;9.70;100.00
58955;BME280;45815;52.334;5.024;2024-03-23T12:22:08;100851.63;;;9.62;100.00
58955;BME280;45815;52.334;5.024;2024-03-23T12:24:34;100860.53;;;8.64;100.00
58955;BME280;45815;52.334;5.024;2024-03-23T12:27:01;100849.63;;;8.49;100.00
58955;BME280;45815;52.334;5.024;2024-03-23T12:29:34;100867.63;;;8.38;100.00
58955;BME280;45815;52.334;5.024;2024-03-23T12:32:00;100840.06;;;8.19;100.00
58955;BME280;45815;52.334;5.024;2024-03-23T12:34:26;100856.16;;;8.03;100.00
58955;BME280;45815;52.334;5.024;2024-03-23T12:36:51;100838.78;;;7.76;100.00
58955;BME280;45815;52.334;5.024;2024-03-23T12:39:17;100849.06;;;7.70;100.00
58955;BME280;45815;52.334;5.024;2024-03-23T12:41:43;100836.56;;;7.60;100.00
58955;BME280;45815;52.334;5.024;2024-03-23T12:44:08;100827.97;;;7.64;100.00
58955;BME280;45815;52.334;5.024;2024-03-23T12:46:37;100831.19;;;8.14;100.00
58955;BME280;45815;52.334;5.024;2024-03-23T12:49:03;100824.47;;;8.86;100.00
58955;BME280;45815;52.334;5.024;2024-03-23T12:51:28;100817.97;;;9.43;100.00
58955;BME280;45815;52.334;5.024;2024-03-23T12:53:53;100822.06;;;9.30;100.00
58955;BME280;45815;52.334;5.024;2024-03-23T12:56:19;100815.16;;;8.99;100.00
58955;BME280;45815;52.334;5.024;2024-03-23T12:58:44;100820.53;;;8.69;100.00
58955;BME280;45815;52.334;5.024;2024-03-23T13:01:10;100818.22;;;8.81;100.00
58955;BME280;45815;52.334;5.024;2024-03-23T13:03:35;100824.03;;;8.71;100.00
58955;BME280;45815;52.334;5.024;2024-03-23T13:06:01;100834.63;;;8.74;100.00
58955;BME280;45815;52.334;5.024;2024-03-23T13:08:26;100831.38;;;8.51;100.00
58955;BME280;45815;52.334;5.024;2024-03-23T13:10:52;100833.19;;;8.23;100.00
58955;BME280;45815;52.334;5.024;2024-03-23T13:13:18;100823.34;;;8.14;100.00
58955;BME280;45815;52.334;5.024;2024-03-23T13:15:49;100834.66;;;8.13;100.00
58955;BME280;45815;52.334;5.024;2024-03-23T13:18:15;100827.47;;;8.06;100.00
58955;BME280;45815;52.334;5.024;2024-03-23T13:20:40;100820.19;;;8.56;100.00
58955;BME280;45815;52.334;5.024;2024-03-23T13:23:05;100807.31;;;8.99;100.00
58955;BME280;45815;52.334;5.024;2024-03-23T13:25:31;100805.69;;;9.02;100.00
58955;BME280;45815;52.334;5.024;2024-03-23T13:27:56;100806.59;;;9.04;100.00
58955;BME280;45815;52.334;5.024;2024-03-23T13:30:21;100794.69;;;9.17;100.00
58955;BME280;45815;52.334;5.024;2024-03-23T13:32:47;100794.72;;;9.19;100.00
58955;BME280;45815;52.334;5.024;2024-03-23T13:35:12;100782.34;;;9.49;100.00
58955;BME280;45815;52.334;5.024;2024-03-23T13:37:37;100780.44;;;9.42;100.00
58955;BME280;45815;52.334;5.024;2024-03-23T13:40:03;100783.09;;;9.83;100.00
58955;BME280;45815;52.334;5.024;2024-03-23T13:42:29;100785.13;;;9.98;100.00
58955;BME280;45815;52.334;5.024;2024-03-23T13:44:54;100777.13;;;9.92;100.00